Time;durP1;ratioP1;P1;durP2;ratioP2;P2;SDS_P1;SDS_P2;PMS_P1;PMS_P2;Temp;Humidity;BMP_temperature;BMP_pressure;BME280_temperature;BME280_humidity;BME280_pressure;Samples;Min_cycle;Max_cycle;Signal;HPM_P1;HPM_P2
2022/06/26 00:00:33;;;;;;;;;;;;;;;;;;6236176;28;20000;-86
2022/06/26 00:03:33;;;;;;;;;;;;;;;;;;6233278;28;19917;-86
2022/06/26 00:06:33;;;;;;;;;;;;;;;;;;6236976;28;19913;-86
2022/06/26 00:09:34;;;;;;;;;;;;;;;;;;6234802;28;19983;-86
2022/06/26 00:12:34;;;;;;;;;;;;;;;;;;6236355;28;20457;-87
2022/06/26 00:15:34;;;;;;;;;;;;;;;;;;6230304;28;19909;-87
2022/06/26 00:18:34;;;;;;;;;;;;;;;;;;6233788;28;20449;-86
2022/06/26 00:21:34;;;;;;;;;;;;;;;;;;6236042;28;19959;-86
2022/06/26 00:24:34;;;;;;;;;;;;;;;;;;6236393;28;20343;-86
2022/06/26 00:27:34;;;;;;;;;;;;;;;;;;6235820;28;20361;-86
2022/06/26 00:30:35;;;;;;;;;;;;;;;;;;6236491;28;20273;-86
2022/06/26 00:33:35;;;;;;;;;;;;;;;;;;6234891;28;20451;-86
2022/06/26 00:36:35;;;;;;;;;;;;;;;;;;6234431;28;19998;-86
2022/06/26 00:39:35;;;;;;;;;;;;;;;;;;6235432;28;20357;-87
2022/06/26 00:42:35;;;;;;;;;;;;;;;;;;6233921;28;19920;-86
2022/06/26 00:45:35;;;;;;;;;;;;;;;;;;6174475;28;1751314;-86
2022/06/26 00:48:35;;;;;;;;;;;;;;;;;;6234754;28;19947;-86
2022/06/26 00:51:35;;;;;;;;;;;;;;;;;;6234181;28;19996;-87
2022/06/26 00:54:36;;;;;;;;;;;;;;;;;;6235311;28;19920;-87
2022/06/26 00:57:36;;;;;;;;;;;;;;;;;;6235567;28;20070;-86
2022/06/26 01:00:36;;;;;;;;;;;;;;;;;;6235748;28;19913;-86
2022/06/26 01:03:36;;;;;;;;;;;;;;;;;;6239680;28;20480;-86
2022/06/26 01:06:36;;;;;;;;;;;;;;;;;;6242009;28;19909;-86
2022/06/26 01:09:36;;;;;;;;;;;;;;;;;;6240414;28;20307;-86
2022/06/26 01:12:36;;;;;;;;;;;;;;;;;;6236138;28;19972;-86
2022/06/26 01:15:36;;;;;;;;;;;;;;;;;;6241147;28;20010;-86
2022/06/26 01:18:37;;;;;;;;;;;;;;;;;;6240848;28;19913;-87
2022/06/26 01:21:37;;;;;;;;;;;;;;;;;;6241424;28;20309;-86
2022/06/26 01:24:37;;;;;;;;;;;;;;;;;;6240498;28;19925;-86
2022/06/26 01:27:37;;;;;;;;;;;;;;;;;;6239095;28;20373;-86
2022/06/26 01:30:37;;;;;;;;;;;;;;;;;;6241983;28;19909;-86
2022/06/26 01:33:37;;;;;;;;;;;;;;;;;;6239433;28;20275;-86
2022/06/26 01:36:37;;;;;;;;;;;;;;;;;;6240975;28;19979;-86
2022/06/26 01:39:37;;;;;;;;;;;;;;;;;;6238977;28;19924;-86
2022/06/26 01:42:37;;;;;;;;;;;;;;;;;;6238678;28;19920;-86
2022/06/26 01:45:38;;;;;;;;;;;;;;;;;;6240041;28;19920;-86
2022/06/26 01:48:38;;;;;;;;;;;;;;;;;;6237345;28;20186;-86
2022/06/26 01:51:38;;;;;;;;;;;;;;;;;;6238897;28;19916;-86
2022/06/26 01:54:38;;;;;;;;;;;;;;;;;;6239154;28;20327;-86
2022/06/26 01:57:38;;;;;;;;;;;;;;;;;;6238259;28;19948;-86
2022/06/26 02:00:38;;;;;;;;;;;;;;;;;;6233821;28;19954;-86
2022/06/26 02:03:38;;;;;;;;;;;;;;;;;;6235337;28;19913;-86
2022/06/26 02:06:38;;;;;;;;;;;;;;;;;;6241023;28;19920;-86
2022/06/26 02:16:16;;;;;;;;;;;;;;;;;;6240144;28;19913;-86
2022/06/26 02:19:16;;;;;;;;;;;;;;;;;;6240055;28;19931;-86
2022/06/26 02:22:16;;;;;;;;;;;;;;;;;;6237187;28;20319;-86
2022/06/26 02:25:16;;;;;;;;;;;;;;;;;;6239981;28;19963;-86
2022/06/26 02:28:17;;;;;;;;;;;;;;;;;;6235730;28;19931;-86
2022/06/26 02:31:17;;;;;;;;;;;;;;;;;;6239230;28;19913;-86
2022/06/26 02:34:17;;;;;;;;;;;;;;;;;;6238950;28;19917;-86
2022/06/26 02:37:17;;;;;;;;;;;;;;;;;;6238042;28;20028;-86
2022/06/26 02:40:19;;;;;;;;;;;;;;;;;;6239413;28;20381;-86
2022/06/26 02:43:19;;;;;;;;;;;;;;;;;;6239792;28;19924;-86
2022/06/26 02:46:19;;;;;;;;;;;;;;;;;;6238971;28;19972;-86
2022/06/26 02:49:19;;;;;;;;;;;;;;;;;;6238704;28;19917;-86
2022/06/26 02:52:20;;;;;;;;;;;;;;;;;;6238127;28;20303;-85
2022/06/26 02:55:20;;;;;;;;;;;;;;;;;;6238003;28;19913;-85
2022/06/26 02:58:20;;;;;;;;;;;;;;;;;;6238498;28;19909;-85
2022/06/26 03:01:20;;;;;;;;;;;;;;;;;;6237883;28;19975;-86
2022/06/26 03:04:20;;;;;;;;;;;;;;;;;;6234456;28;20115;-86
2022/06/26 03:07:20;;;;;;;;;;;;;;;;;;6238507;28;19940;-85
2022/06/26 03:10:20;;;;;;;;;;;;;;;;;;6238023;28;20348;-85
2022/06/26 03:13:20;;;;;;;;;;;;;;;;;;6240338;28;20267;-87
2022/06/26 03:16:20;;;;;;;;;;;;;;;;;;6237410;28;19936;-85
2022/06/26 03:19:21;;;;;;;;;;;;;;;;;;6237793;28;20239;-86
2022/06/26 03:22:21;;;;;;;;;;;;;;;;;;6242261;28;19913;-85
2022/06/26 03:25:21;;;;;;;;;;;;;;;;;;6239422;28;19963;-86
2022/06/26 03:28:21;;;;;;;;;;;;;;;;;;6237398;28;19933;-85
2022/06/26 03:31:21;;;;;;;;;;;;;;;;;;6240136;28;19916;-86
2022/06/26 03:34:21;;;;;;;;;;;;;;;;;;6239277;28;20007;-86
2022/06/26 03:37:21;;;;;;;;;;;;;;;;;;6236767;28;19913;-86
2022/06/26 03:40:21;;;;;;;;;;;;;;;;;;6239475;28;20331;-86
2022/06/26 03:43:21;;;;;;;;;;;;;;;;;;6237995;28;19909;-86
2022/06/26 03:46:22;;;;;;;;;;;;;;;;;;6236026;28;19921;-86
2022/06/26 03:49:22;;;;;;;;;;;;;;;;;;6237426;28;19909;-85
2022/06/26 03:52:22;;;;;;;;;;;;;;;;;;6236539;28;20036;-86
2022/06/26 03:55:22;;;;;;;;;;;;;;;;;;6237847;28;19916;-86
2022/06/26 03:58:22;;;;;;;;;;;;;;;;;;6236596;28;19915;-86
2022/06/26 04:01:22;;;;;;;;;;;;;;;;;;6237277;28;19904;-85
2022/06/26 04:04:22;;;;;;;;;;;;;;;;;;6235567;28;20008;-85
2022/06/26 04:07:23;;;;;;;;;;;;;;;;;;6227746;28;19917;-86
2022/06/26 04:10:23;;;;;;;;;;;;;;;;;;6238033;28;19913;-86
2022/06/26 04:13:23;;;;;;;;;;;;;;;;;;6235155;28;20416;-86
2022/06/26 04:16:23;;;;;;;;;;;;;;;;;;6233580;28;20360;-87
2022/06/26 04:19:23;;;;;;;;;;;;;;;;;;6237144;28;19909;-86
2022/06/26 04:22:23;;;;;;;;;;;;;;;;;;6233506;28;19971;-86
2022/06/26 04:25:23;;;;;;;;;;;;;;;;;;6237486;28;19913;-86
2022/06/26 04:28:23;;;;;;;;;;;;;;;;;;6234363;28;19909;-86
2022/06/26 04:31:23;;;;;;;;;;;;;;;;;;6235421;28;20403;-86
2022/06/26 04:34:24;;;;;;;;;;;;;;;;;;6233271;28;20007;-85
2022/06/26 04:37:24;;;;;;;;;;;;;;;;;;6229730;28;20331;-86
2022/06/26 04:40:24;;;;;;;;;;;;;;;;;;6237228;28;20311;-86
2022/06/26 04:43:24;;;;;;;;;;;;;;;;;;6236528;28;19916;-86
2022/06/26 04:46:24;;;;;;;;;;;;;;;;;;6235973;28;19921;-85
2022/06/26 04:49:24;;;;;;;;;;;;;;;;;;6233534;28;19910;-85
2022/06/26 04:52:24;;;;;;;;;;;;;;;;;;6236456;28;19913;-86
2022/06/26 04:55:24;;;;;;;;;;;;;;;;;;6236483;28;19989;-86
2022/06/26 04:58:24;;;;;;;;;;;;;;;;;;6235024;28;20303;-86
2022/06/26 05:01:25;;;;;;;;;;;;;;;;;;6236308;28;20423;-86
2022/06/26 05:04:25;;;;;;;;;;;;;;;;;;6236112;28;20004;-86
2022/06/26 05:07:25;;;;;;;;;;;;;;;;;;6233793;28;20022;-86
2022/06/26 05:10:25;;;;;;;;;;;;;;;;;;6231978;28;20229;-86
2022/06/26 05:13:25;;;;;;;;;;;;;;;;;;6234931;28;19948;-87
2022/06/26 05:16:25;;;;;;;;;;;;;;;;;;6234029;28;20311;-87
2022/06/26 05:19:25;;;;;;;;;;;;;;;;;;6234543;28;19924;-87
2022/06/26 05:22:25;;;;;;;;;;;;;;;;;;6234871;28;19921;-87
2022/06/26 05:25:25;;;;;;;;;;;;;;;;;;6233640;28;20279;-87
2022/06/26 05:28:25;;;;;;;;;;;;;;;;;;6230842;28;19917;-86
2022/06/26 05:31:26;;;;;;;;;;;;;;;;;;6233177;28;20153;-87
2022/06/26 05:34:26;;;;;;;;;;;;;;;;;;6231576;28;19956;-86
2022/06/26 05:37:26;;;;;;;;;;;;;;;;;;6231753;28;20277;-86
2022/06/26 05:40:26;;;;;;;;;;;;;;;;;;6229658;28;20388;-87
2022/06/26 05:43:26;;;;;;;;;;;;;;;;;;6233184;28;19916;-87
2022/06/26 05:46:26;;;;;;;;;;;;;;;;;;6219908;28;19932;-87
2022/06/26 05:49:26;;;;;;;;;;;;;;;;;;6235070;28;19917;-87
2022/06/26 05:52:26;;;;;;;;;;;;;;;;;;6238029;28;19921;-87
2022/06/26 05:55:27;;;;;;;;;;;;;;;;;;6236934;28;20303;-88
2022/06/26 05:58:27;;;;;;;;;;;;;;;;;;6236057;28;19919;-88
2022/06/26 06:01:27;;;;;;;;;;;;;;;;;;6236080;28;19910;-88
2022/06/26 06:04:28;;;;;;;;;;;;;;;;;;6236991;28;20130;-87
2022/06/26 06:07:28;;;;;;;;;;;;;;;;;;6237972;28;19909;-88
2022/06/26 06:10:28;;;;;;;;;;;;;;;;;;6237842;28;19913;-88
2022/06/26 06:13:28;;;;;;;;;;;;;;;;;;6232553;28;20028;-88
2022/06/26 06:16:28;;;;;;;;;;;;;;;;;;6226242;28;19917;-88
2022/06/26 06:19:28;;;;;;;;;;;;;;;;;;6232397;28;19920;-88
2022/06/26 06:22:28;;;;;;;;;;;;;;;;;;6230190;28;19909;-88
2022/06/26 06:25:28;;;;;;;;;;;;;;;;;;6237368;28;20393;-88
2022/06/26 06:28:28;;;;;;;;;;;;;;;;;;6236890;28;19936;-88
2022/06/26 06:31:28;;;;;;;;;;;;;;;;;;6234793;28;19916;-88
2022/06/26 06:34:28;;;;;;;;;;;;;;;;;;6234685;28;20356;-88
2022/06/26 06:37:29;;;;;;;;;;;;;;;;;;6235492;28;19975;-89
2022/06/26 06:40:29;;;;;;;;;;;;;;;;;;6233653;28;19917;-88
2022/06/26 06:43:30;;;;;;;;;;;;;;;;;;6235972;28;19917;-89
2022/06/26 06:46:30;;;;;;;;;;;;;;;;;;6229051;28;20331;-88
2022/06/26 06:49:30;;;;;;;;;;;;;;;;;;6234568;28;20339;-88
2022/06/26 06:52:30;;;;;;;;;;;;;;;;;;6230877;28;19916;-88
2022/06/26 06:55:30;;;;;;;;;;;;;;;;;;6236327;28;19909;-88
2022/06/26 06:58:30;;;;;;;;;;;;;;;;;;6234948;28;19916;-88
2022/06/26 07:01:30;;;;;;;;;;;;;;;;;;6234132;28;20254;-88
2022/06/26 07:04:30;;;;;;;;;;;;;;;;;;6233947;28;20380;-87
2022/06/26 07:07:31;;;;;;;;;;;;;;;;;;6236255;28;19913;-88
2022/06/26 07:10:31;;;;;;;;;;;;;;;;;;6235858;28;19915;-88
2022/06/26 07:13:31;;;;;;;;;;;;;;;;;;6232737;28;19993;-88
2022/06/26 07:16:31;;;;;;;;;;;;;;;;;;6234837;28;20040;-88
2022/06/26 07:19:31;;;;;;;;;;;;;;;;;;6236797;28;19913;-88
2022/06/26 07:22:31;;;;;;;;;;;;;;;;;;6236077;28;20180;-88
2022/06/26 07:25:31;;;;;;;;;;;;;;;;;;6234819;28;20345;-88
2022/06/26 07:28:31;;;;;;;;;;;;;;;;;;6235753;28;19967;-88
2022/06/26 07:31:31;;;;;;;;;;;;;;;;;;6235892;28;20180;-88
2022/06/26 07:34:31;;;;;;;;;;;;;;;;;;6234538;28;20355;-88
2022/06/26 07:37:32;;;;;;;;;;;;;;;;;;6231525;28;19913;-88
2022/06/26 07:40:32;;;;;;;;;;;;;;;;;;6236556;28;20379;-88
2022/06/26 07:43:32;;;;;;;;;;;;;;;;;;6237162;28;20333;-88
2022/06/26 07:46:32;;;;;;;;;;;;;;;;;;6234539;28;19925;-89
2022/06/26 07:49:32;;;;;;;;;;;;;;;;;;6235531;28;19909;-88
2022/06/26 07:52:32;;;;;;;;;;;;;;;;;;6236463;28;20007;-89
2022/06/26 07:55:32;;;;;;;;;;;;;;;;;;6236191;28;19913;-88
2022/06/26 07:58:32;;;;;;;;;;;;;;;;;;6234652;28;20572;-88
2022/06/26 08:01:33;;;;;;;;;;;;;;;;;;6235630;28;19917;-88
2022/06/26 08:04:33;;;;;;;;;;;;;;;;;;6233159;28;20207;-88
2022/06/26 08:07:33;;;;;;;;;;;;;;;;;;6234276;28;20206;-88
2022/06/26 08:10:33;;;;;;;;;;;;;;;;;;6234973;28;19909;-88
2022/06/26 08:13:33;;;;;;;;;;;;;;;;;;6232131;28;19979;-88
2022/06/26 08:16:34;;;;;;;;;;;;;;;;;;6234078;28;19967;-88
2022/06/26 08:19:34;;;;;;;;;;;;;;;;;;6234983;28;20454;-88
2022/06/26 08:22:34;;;;;;;;;;;;;;;;;;6233818;28;19920;-88
2022/06/26 08:25:34;;;;;;;;;;;;;;;;;;6233317;28;19913;-88
2022/06/26 08:28:37;;;;;;;;;;;;;;;;;;6232074;28;20381;-88
2022/06/26 08:31:37;;;;;;;;;;;;;;;;;;6233730;28;19974;-88
2022/06/26 08:34:37;;;;;;;;;;;;;;;;;;6234987;28;20000;-88
2022/06/26 08:37:37;;;;;;;;;;;;;;;;;;6232978;28;19956;-89
2022/06/26 08:40:38;;;;;;;;;;;;;;;;;;6233434;28;20003;-88
2022/06/26 08:43:38;;;;;;;;;;;;;;;;;;6235031;28;20231;-88
2022/06/26 08:46:38;;;;;;;;;;;;;;;;;;6233776;28;19929;-88
2022/06/26 08:49:38;;;;;;;;;;;;;;;;;;6235107;28;19920;-88
2022/06/26 08:52:38;;;;;;;;;;;;;;;;;;6235193;28;19980;-88
2022/06/26 08:55:38;;;;;;;;;;;;;;;;;;6234784;28;19913;-88
2022/06/26 08:58:38;;;;;;;;;;;;;;;;;;6233716;28;19920;-88
2022/06/26 09:01:38;;;;;;;;;;;;;;;;;;6234631;28;19914;-88
2022/06/26 09:04:38;;;;;;;;;;;;;;;;;;6230791;28;20184;-88
2022/06/26 09:07:38;;;;;;;;;;;;;;;;;;6234618;28;19997;-88
2022/06/26 09:10:39;;;;;;;;;;;;;;;;;;6234375;28;19913;-88
2022/06/26 09:13:39;;;;;;;;;;;;;;;;;;6234734;28;19920;-87
2022/06/26 09:16:39;;;;;;;;;;;;;;;;;;6234791;28;20198;-88
2022/06/26 09:19:43;;;;;;;;;;;;;;;;;;6233297;28;20186;-87
2022/06/26 09:22:43;;;;;;;;;;;;;;;;;;6233268;28;19952;-88
2022/06/26 09:25:43;;;;;;;;;;;;;;;;;;6238099;28;19916;-88
2022/06/26 09:28:43;;;;;;;;;;;;;;;;;;6234841;28;19956;-87
2022/06/26 09:31:44;;;;;;;;;;;;;;;;;;6237920;28;20130;-88
2022/06/26 09:34:44;;;;;;;;;;;;;;;;;;6239359;28;19913;-87
2022/06/26 09:37:44;;;;;;;;;;;;;;;;;;6239394;28;19909;-88
2022/06/26 09:40:44;;;;;;;;;;;;;;;;;;6238883;28;19913;-88
2022/06/26 09:43:44;;;;;;;;;;;;;;;;;;6236559;28;19940;-88
2022/06/26 09:46:44;;;;;;;;;;;;;;;;;;6239023;28;20293;-88
2022/06/26 09:49:44;;;;;;;;;;;;;;;;;;6238856;28;19909;-87
2022/06/26 09:52:45;;;;;;;;;;;;;;;;;;6238457;28;19996;-87
2022/06/26 09:55:45;;;;;;;;;;;;;;;;;;6236440;28;19924;-87
2022/06/26 09:58:45;;;;;;;;;;;;;;;;;;6237810;28;19916;-88
2022/06/26 10:08:23;;;;;;;;;;;;;;;;;;6238187;28;19909;-88
2022/06/26 10:11:23;;;;;;;;;;;;;;;;;;6237976;28;19993;-87
2022/06/26 10:14:23;;;;;;;;;;;;;;;;;;6238216;28;19913;-88
2022/06/26 10:17:23;;;;;;;;;;;;;;;;;;6238297;28;19945;-87
2022/06/26 10:20:23;;;;;;;;;;;;;;;;;;6236918;28;20291;-87
2022/06/26 10:23:23;;;;;;;;;;;;;;;;;;6236544;28;19909;-87
2022/06/26 10:26:23;;;;;;;;;;;;;;;;;;6238357;28;20254;-87
2022/06/26 10:29:23;;;;;;;;;;;;;;;;;;6237927;28;20005;-88
2022/06/26 10:32:23;;;;;;;;;;;;;;;;;;6236609;28;19913;-87
2022/06/26 10:35:24;;;;;;;;;;;;;;;;;;6232498;28;19979;-88
2022/06/26 10:38:24;;;;;;;;;;;;;;;;;;6239202;28;19913;-88
2022/06/26 10:44:43;;;;;;;;;;;;;;;;;;6237500;28;19917;-87
2022/06/26 10:47:43;;;;;;;;;;;;;;;;;;6237152;28;19967;-87
2022/06/26 10:50:45;;;;;;;;;;;;;;;;;;6237323;28;20372;-87
2022/06/26 10:53:45;;;;;;;;;;;;;;;;;;6236966;28;19916;-87
2022/06/26 10:56:46;;;;;;;;;;;;;;;;;;6238909;28;20129;-87
2022/06/26 10:59:46;;;;;;;;;;;;;;;;;;6238044;28;19909;-87
2022/06/26 11:02:46;;;;;;;;;;;;;;;;;;6237227;28;19994;-88
2022/06/26 11:05:46;;;;;;;;;;;;;;;;;;6238016;28;19913;-88
2022/06/26 11:08:47;;;;;;;;;;;;;;;;;;6236758;28;20404;-88
2022/06/26 11:11:47;;;;;;;;;;;;;;;;;;6233792;28;20210;-88
2022/06/26 11:14:47;;;;;;;;;;;;;;;;;;6223140;28;19920;-88
2022/06/26 11:17:47;;;;;;;;;;;;;;;;;;6234444;28;19949;-88
2022/06/26 11:20:47;;;;;;;;;;;;;;;;;;6221095;28;19917;-88
2022/06/26 11:23:51;;;;;;;;;;;;;;;;;;6232975;28;19968;-88
2022/06/26 11:26:51;;;;;;;;;;;;;;;;;;6232551;28;19918;-88
2022/06/26 11:29:51;;;;;;;;;;;;;;;;;;6230189;28;20385;-88
2022/06/26 11:32:52;;;;;;;;;;;;;;;;;;6227818;28;19917;-88
2022/06/26 11:35:52;;;;;;;;;;;;;;;;;;6234510;28;20374;-88
2022/06/26 11:38:52;;;;;;;;;;;;;;;;;;6232173;28;19917;-89
2022/06/26 11:41:53;;;;;;;;;;;;;;;;;;6230455;28;19917;-89
2022/06/26 11:44:53;;;;;;;;;;;;;;;;;;6234756;28;20399;-90
2022/06/26 11:47:53;;;;;;;;;;;;;;;;;;6229787;28;19956;-89
2022/06/26 11:50:53;;;;;;;;;;;;;;;;;;6230079;28;19928;-89
2022/06/26 11:53:53;;;;;;;;;;;;;;;;;;6229939;28;19999;-89
2022/06/26 11:56:53;;;;;;;;;;;;;;;;;;6231283;28;20056;-89
2022/06/26 11:59:53;;;;;;;;;;;;;;;;;;6220388;28;19917;-89
2022/06/26 12:02:53;;;;;;;;;;;;;;;;;;6228646;28;19917;-91
2022/06/26 12:05:53;;;;;;;;;;;;;;;;;;6231682;28;19925;-89
2022/06/26 12:08:55;;;;;;;;;;;;;;;;;;6234141;28;20000;-88
2022/06/26 12:11:55;;;;;;;;;;;;;;;;;;6224365;28;19921;-89
2022/06/26 12:14:55;;;;;;;;;;;;;;;;;;6234583;28;19917;-89
2022/06/26 12:17:55;;;;;;;;;;;;;;;;;;6230514;28;19913;-90
2022/06/26 12:20:55;;;;;;;;;;;;;;;;;;6233488;28;19956;-89
2022/06/26 12:23:56;;;;;;;;;;;;;;;;;;6233292;28;19955;-90
2022/06/26 12:26:56;;;;;;;;;;;;;;;;;;6230515;28;19967;-89
2022/06/26 12:29:56;;;;;;;;;;;;;;;;;;6228748;28;19917;-89
2022/06/26 12:32:57;;;;;;;;;;;;;;;;;;6231244;28;19921;-89
2022/06/26 12:35:57;;;;;;;;;;;;;;;;;;6224176;28;19985;-89
2022/06/26 12:38:57;;;;;;;;;;;;;;;;;;6231633;28;19913;-89
2022/06/26 12:41:57;;;;;;;;;;;;;;;;;;6228804;28;20021;-89
2022/06/26 12:44:57;;;;;;;;;;;;;;;;;;6232897;28;19913;-89
2022/06/26 12:47:57;;;;;;;;;;;;;;;;;;6231665;28;19968;-89
2022/06/26 12:50:57;;;;;;;;;;;;;;;;;;6232810;28;19921;-88
2022/06/26 12:53:57;;;;;;;;;;;;;;;;;;6229119;28;19913;-88
2022/06/26 12:56:57;;;;;;;;;;;;;;;;;;6233786;28;20399;-88
2022/06/26 12:59:58;;;;;;;;;;;;;;;;;;6237519;28;20364;-88
2022/06/26 13:02:58;;;;;;;;;;;;;;;;;;6237150;28;19913;-88
2022/06/26 13:05:58;;;;;;;;;;;;;;;;;;6234660;28;19921;-88
2022/06/26 13:08:58;;;;;;;;;;;;;;;;;;6232826;28;20380;-88
2022/06/26 13:11:58;;;;;;;;;;;;;;;;;;6236814;28;20016;-89
2022/06/26 13:14:58;;;;;;;;;;;;;;;;;;6239029;28;19920;-89
2022/06/26 13:17:58;;;;;;;;;;;;;;;;;;6239218;28;20487;-90
2022/06/26 13:20:58;;;;;;;;;;;;;;;;;;6234007;28;19917;-89
2022/06/26 13:23:58;;;;;;;;;;;;;;;;;;6238664;28;20418;-89
2022/06/26 13:26:59;;;;;;;;;;;;;;;;;;6229087;28;20160;-89
2022/06/26 13:29:59;;;;;;;;;;;;;;;;;;6230764;28;19940;-90
2022/06/26 13:32:59;;;;;;;;;;;;;;;;;;6235338;28;19922;-90
2022/06/26 13:35:59;;;;;;;;;;;;;;;;;;6236434;28;19913;-90
2022/06/26 13:38:59;;;;;;;;;;;;;;;;;;6235437;28;19913;-90
2022/06/26 13:41:59;;;;;;;;;;;;;;;;;;6236055;28;20142;-90
2022/06/26 13:44:59;;;;;;;;;;;;;;;;;;6236310;28;19921;-90
2022/06/26 13:48:00;;;;;;;;;;;;;;;;;;6238941;28;20071;-89
2022/06/26 13:51:00;;;;;;;;;;;;;;;;;;6237142;28;19944;-90
2022/06/26 13:54:00;;;;;;;;;;;;;;;;;;6233491;28;19924;-90
2022/06/26 13:57:00;;;;;;;;;;;;;;;;;;6234977;28;20043;-90
2022/06/26 14:00:00;;;;;;;;;;;;;;;;;;6238295;28;19924;-90
2022/06/26 14:03:00;;;;;;;;;;;;;;;;;;6238171;28;20375;-90
2022/06/26 14:06:00;;;;;;;;;;;;;;;;;;6237706;28;20199;-90
2022/06/26 14:09:00;;;;;;;;;;;;;;;;;;6235348;28;20036;-90
2022/06/26 14:12:00;;;;;;;;;;;;;;;;;;6229048;28;19917;-90
2022/06/26 14:15:01;;;;;;;;;;;;;;;;;;6230682;28;19917;-90
2022/06/26 14:18:01;;;;;;;;;;;;;;;;;;6232615;28;20030;-90
2022/06/26 14:21:01;;;;;;;;;;;;;;;;;;6234504;28;20204;-90
2022/06/26 14:27:20;;;;;;;;;;;;;;;;;;6236125;28;20424;-90
2022/06/26 14:30:20;;;;;;;;;;;;;;;;;;6238292;28;20442;-90
2022/06/26 14:33:20;;;;;;;;;;;;;;;;;;6235898;28;20329;-90
2022/06/26 14:36:20;;;;;;;;;;;;;;;;;;6238444;28;19928;-89
2022/06/26 14:39:20;;;;;;;;;;;;;;;;;;6234962;28;19923;-90
2022/06/26 14:42:21;;;;;;;;;;;;;;;;;;6237415;28;20234;-90
2022/06/26 14:45:21;;;;;;;;;;;;;;;;;;6236980;28;20110;-90
2022/06/26 14:48:21;;;;;;;;;;;;;;;;;;6236308;28;19979;-90
2022/06/26 14:51:21;;;;;;;;;;;;;;;;;;6236507;28;20320;-90
2022/06/26 14:54:21;;;;;;;;;;;;;;;;;;6231671;28;20440;-90
2022/06/26 14:57:21;;;;;;;;;;;;;;;;;;6235667;28;20223;-89
2022/06/26 15:00:21;;;;;;;;;;;;;;;;;;6238051;28;19920;-90
2022/06/26 15:03:21;;;;;;;;;;;;;;;;;;6235298;28;20367;-89
2022/06/26 15:06:22;;;;;;;;;;;;;;;;;;6232464;28;19976;-89
2022/06/26 15:09:22;;;;;;;;;;;;;;;;;;6231703;28;19917;-89
2022/06/26 15:12:22;;;;;;;;;;;;;;;;;;6226841;28;19921;-88
2022/06/26 15:15:22;;;;;;;;;;;;;;;;;;6232313;28;19917;-89
2022/06/26 15:18:23;;;;;;;;;;;;;;;;;;6233731;28;20233;-90
2022/06/26 15:21:23;;;;;;;;;;;;;;;;;;6236740;28;19909;-89
2022/06/26 15:24:23;;;;;;;;;;;;;;;;;;6235727;28;19952;-90
2022/06/26 15:27:23;;;;;;;;;;;;;;;;;;6234213;28;19917;-89
2022/06/26 15:30:25;;;;;;;;;;;;;;;;;;6237003;28;19921;-89
2022/06/26 15:33:25;;;;;;;;;;;;;;;;;;6234344;28;20359;-89
2022/06/26 15:36:25;;;;;;;;;;;;;;;;;;6229883;28;20363;-89
2022/06/26 15:39:25;;;;;;;;;;;;;;;;;;6235096;28;20327;-90
2022/06/26 15:42:25;;;;;;;;;;;;;;;;;;6233133;28;20373;-89
2022/06/26 15:45:25;;;;;;;;;;;;;;;;;;6229386;28;19917;-88
2022/06/26 15:48:28;;;;;;;;;;;;;;;;;;6234255;28;20333;-89
2022/06/26 15:51:29;;;;;;;;;;;;;;;;;;6231186;28;19920;-88
2022/06/26 15:54:29;;;;;;;;;;;;;;;;;;6233442;28;20424;-88
2022/06/26 15:57:29;;;;;;;;;;;;;;;;;;6234060;28;20430;-89
2022/06/26 16:00:29;;;;;;;;;;;;;;;;;;6228536;28;19913;-88
2022/06/26 16:03:29;;;;;;;;;;;;;;;;;;6235955;28;19992;-88
2022/06/26 16:06:29;;;;;;;;;;;;;;;;;;6233373;28;20093;-88
2022/06/26 16:09:30;;;;;;;;;;;;;;;;;;6235151;28;19913;-89
2022/06/26 16:12:30;;;;;;;;;;;;;;;;;;6233927;28;19925;-88
2022/06/26 16:15:30;;;;;;;;;;;;;;;;;;6234091;28;19913;-88
2022/06/26 16:18:30;;;;;;;;;;;;;;;;;;6233706;28;19913;-88
2022/06/26 16:21:30;;;;;;;;;;;;;;;;;;6233611;28;19966;-89
2022/06/26 16:27:49;;;;;;;;;;;;;;;;;;6235275;28;20008;-89
2022/06/26 16:30:49;;;;;;;;;;;;;;;;;;6234702;28;19923;-88
2022/06/26 16:33:49;;;;;;;;;;;;;;;;;;6234732;28;19913;-88
2022/06/26 16:36:49;;;;;;;;;;;;;;;;;;6236347;28;20008;-88
2022/06/26 16:39:49;;;;;;;;;;;;;;;;;;6234798;28;19921;-88
2022/06/26 16:42:49;;;;;;;;;;;;;;;;;;6233789;28;19967;-88
2022/06/26 16:45:50;;;;;;;;;;;;;;;;;;6230534;28;20144;-88
2022/06/26 16:48:50;;;;;;;;;;;;;;;;;;6234180;28;20003;-88
2022/06/26 16:51:50;;;;;;;;;;;;;;;;;;6232845;28;19939;-88
2022/06/26 16:54:50;;;;;;;;;;;;;;;;;;6234641;28;19924;-88
2022/06/26 16:57:50;;;;;;;;;;;;;;;;;;6232360;28;20004;-88
2022/06/26 17:00:50;;;;;;;;;;;;;;;;;;6233508;28;20104;-89
2022/06/26 17:03:50;;;;;;;;;;;;;;;;;;6231743;28;20280;-89
2022/06/26 17:06:50;;;;;;;;;;;;;;;;;;6233333;28;20016;-89
2022/06/26 17:09:51;;;;;;;;;;;;;;;;;;6234917;28;19952;-89
2022/06/26 17:12:51;;;;;;;;;;;;;;;;;;6233791;28;19977;-89
2022/06/26 17:15:51;;;;;;;;;;;;;;;;;;6232677;28;20217;-89
2022/06/26 17:18:51;;;;;;;;;;;;;;;;;;6238048;28;19956;-89
2022/06/26 17:21:51;;;;;;;;;;;;;;;;;;6234392;28;19909;-88
2022/06/26 17:24:51;;;;;;;;;;;;;;;;;;6232566;28;19913;-89
2022/06/26 17:27:51;;;;;;;;;;;;;;;;;;6233086;28;20164;-88
2022/06/26 17:30:51;;;;;;;;;;;;;;;;;;6232563;28;19913;-87
2022/06/26 17:33:51;;;;;;;;;;;;;;;;;;6229337;28;19910;-88
2022/06/26 17:36:51;;;;;;;;;;;;;;;;;;6232088;28;20461;-88
2022/06/26 17:39:52;;;;;;;;;;;;;;;;;;6232203;28;20269;-88
2022/06/26 17:42:52;;;;;;;;;;;;;;;;;;6228404;28;19916;-88
2022/06/26 17:45:52;;;;;;;;;;;;;;;;;;6237869;28;19936;-88
2022/06/26 17:48:52;;;;;;;;;;;;;;;;;;6237668;28;20096;-88
2022/06/26 17:51:55;;;;;;;;;;;;;;;;;;6240026;28;19935;-88
2022/06/26 17:54:55;;;;;;;;;;;;;;;;;;6238918;28;20000;-88
2022/06/26 17:57:55;;;;;;;;;;;;;;;;;;6239328;28;20130;-87
2022/06/26 18:00:55;;;;;;;;;;;;;;;;;;6235606;28;19917;-88
2022/06/26 18:03:55;;;;;;;;;;;;;;;;;;6238751;28;19952;-88
2022/06/26 18:06:55;;;;;;;;;;;;;;;;;;6241006;28;20381;-87
2022/06/26 18:09:56;;;;;;;;;;;;;;;;;;6239688;28;19912;-87
2022/06/26 18:12:56;;;;;;;;;;;;;;;;;;6238927;28;20205;-87
2022/06/26 18:15:56;;;;;;;;;;;;;;;;;;6240237;28;19923;-87
2022/06/26 18:18:56;;;;;;;;;;;;;;;;;;6236047;28;19920;-87
2022/06/26 18:21:56;;;;;;;;;;;;;;;;;;6236973;28;19929;-87
2022/06/26 18:24:56;;;;;;;;;;;;;;;;;;6239896;28;20035;-87
2022/06/26 18:27:57;;;;;;;;;;;;;;;;;;6237069;28;20399;-87
2022/06/26 18:30:57;;;;;;;;;;;;;;;;;;6239272;28;19909;-87
2022/06/26 18:33:57;;;;;;;;;;;;;;;;;;6238409;28;20312;-87
2022/06/26 18:36:57;;;;;;;;;;;;;;;;;;6237992;28;19921;-87
2022/06/26 18:39:57;;;;;;;;;;;;;;;;;;6247318;28;20280;-87
2022/06/26 18:42:57;;;;;;;;;;;;;;;;;;6241861;28;19917;-87
2022/06/26 18:45:59;;;;;;;;;;;;;;;;;;6241097;28;19929;-87
2022/06/26 18:48:59;;;;;;;;;;;;;;;;;;6242552;28;20475;-86
2022/06/26 18:51:59;;;;;;;;;;;;;;;;;;6246986;28;20388;-87
2022/06/26 18:54:59;;;;;;;;;;;;;;;;;;6245008;28;19928;-86
2022/06/26 18:57:59;;;;;;;;;;;;;;;;;;6244661;28;19924;-86
2022/06/26 19:00:59;;;;;;;;;;;;;;;;;;6246949;28;19952;-86
2022/06/26 19:04:00;;;;;;;;;;;;;;;;;;6249679;28;19913;-88
2022/06/26 19:07:00;;;;;;;;;;;;;;;;;;6242274;28;19928;-87
2022/06/26 19:10:00;;;;;;;;;;;;;;;;;;6238407;28;19925;-88
2022/06/26 19:16:19;;;;;;;;;;;;;;;;;;6239851;28;19913;-87
2022/06/26 19:19:19;;;;;;;;;;;;;;;;;;6239838;28;19959;-87
2022/06/26 19:22:19;;;;;;;;;;;;;;;;;;6242357;28;19952;-87
2022/06/26 19:25:21;;;;;;;;;;;;;;;;;;6237653;28;19928;-87
2022/06/26 19:28:22;;;;;;;;;;;;;;;;;;6241421;28;19913;-87
2022/06/26 19:31:22;;;;;;;;;;;;;;;;;;6248553;28;19913;-86
2022/06/26 19:34:22;;;;;;;;;;;;;;;;;;6250318;28;19909;-86
2022/06/26 19:37:22;;;;;;;;;;;;;;;;;;6249051;28;19913;-86
2022/06/26 19:40:23;;;;;;;;;;;;;;;;;;6252069;28;19917;-87
2022/06/26 19:43:23;;;;;;;;;;;;;;;;;;6256199;28;20328;-86
2022/06/26 19:46:23;;;;;;;;;;;;;;;;;;6252925;28;19921;-86
2022/06/26 19:52:43;;;;;;;;;;;;;;;;;;6252488;28;19921;-87
2022/06/26 19:55:44;;;;;;;;;;;;;;;;;;6249878;28;20006;-86
2022/06/26 19:58:44;;;;;;;;;;;;;;;;;;6245678;28;20433;-86
2022/06/26 20:01:44;;;;;;;;;;;;;;;;;;6232193;28;20463;-87
2022/06/26 20:04:45;;;;;;;;;;;;;;;;;;6239900;28;20435;-86
2022/06/26 20:07:45;;;;;;;;;;;;;;;;;;6245072;28;19913;-87
2022/06/26 20:10:45;;;;;;;;;;;;;;;;;;6249891;28;19972;-87
2022/06/26 20:13:45;;;;;;;;;;;;;;;;;;6261660;28;19917;-85
2022/06/26 20:16:47;;;;;;;;;;;;;;;;;;6253817;28;19952;-86
2022/06/26 20:19:48;;;;;;;;;;;;;;;;;;6264116;28;19913;-86
2022/06/26 20:22:48;;;;;;;;;;;;;;;;;;6265174;28;19910;-86
2022/06/26 20:25:48;;;;;;;;;;;;;;;;;;6252811;28;19913;-86
2022/06/26 20:28:48;;;;;;;;;;;;;;;;;;6255653;28;19909;-86
2022/06/26 20:31:48;;;;;;;;;;;;;;;;;;6256256;28;19909;-86
2022/06/26 20:34:48;;;;;;;;;;;;;;;;;;6253140;28;20015;-86
2022/06/26 20:37:51;;;;;;;;;;;;;;;;;;6252059;28;19913;-86
2022/06/26 20:40:51;;;;;;;;;;;;;;;;;;6238774;28;19921;-87
2022/06/26 20:43:51;;;;;;;;;;;;;;;;;;6250132;28;19921;-86
2022/06/26 20:46:51;;;;;;;;;;;;;;;;;;6244314;28;20433;-87
2022/06/26 20:49:51;;;;;;;;;;;;;;;;;;6255834;28;20470;-86
2022/06/26 20:52:51;;;;;;;;;;;;;;;;;;6253818;28;19977;-86
2022/06/26 20:55:51;;;;;;;;;;;;;;;;;;6254425;28;19909;-86
2022/06/26 20:58:52;;;;;;;;;;;;;;;;;;6258034;28;19910;-87